createdAt,value
2023-09-05T00:02:15.219Z,18.40
2023-09-05T00:04:44.045Z,18.40
2023-09-05T00:07:12.229Z,18.50
2023-09-05T00:09:40.126Z,18.50
2023-09-05T00:12:09.416Z,18.10
2023-09-05T00:14:39.298Z,17.90
2023-09-05T00:17:07.207Z,17.60
2023-09-05T00:19:35.113Z,17.20
2023-09-05T00:22:02.971Z,16.90
2023-09-05T00:24:33.247Z,16.80
2023-09-05T00:27:02.249Z,16.80
2023-09-05T00:29:31.725Z,16.80
2023-09-05T00:32:03.210Z,16.90
2023-09-05T00:34:32.954Z,17.10
2023-09-05T00:37:01.961Z,17.20
2023-09-05T00:39:30.239Z,17.30
2023-09-05T00:41:58.954Z,17.20
2023-09-05T00:44:27.400Z,16.90
2023-09-05T00:46:57.446Z,16.40
2023-09-05T00:49:28.679Z,16.00
2023-09-05T00:51:58.744Z,16.00
2023-09-05T00:54:27.046Z,16.10
2023-09-05T00:56:55.160Z,16.00
2023-09-05T00:59:23.641Z,16.00
2023-09-05T01:01:51.783Z,16.00
2023-09-05T01:04:20.244Z,16.00
2023-09-05T01:06:58.290Z,15.80
2023-09-05T01:09:34.006Z,16.10
2023-09-05T01:12:03.442Z,16.00
2023-09-05T01:14:31.318Z,15.90
2023-09-05T01:17:02.542Z,15.80
2023-09-05T01:19:31.551Z,15.70
2023-09-05T01:22:12.978Z,16.00
2023-09-05T01:24:42.526Z,16.20
2023-09-05T01:27:11.367Z,16.40
2023-09-05T01:29:40.458Z,16.30
2023-09-05T01:32:10.799Z,15.90
2023-09-05T01:34:38.722Z,16.20
2023-09-05T01:37:06.747Z,16.20
2023-09-05T01:39:34.619Z,16.10
2023-09-05T01:42:04.066Z,16.10
2023-09-05T01:44:33.825Z,16.20
2023-09-05T01:47:01.699Z,16.00
2023-09-05T01:49:29.580Z,16.20
2023-09-05T01:51:57.472Z,16.10
2023-09-05T01:54:25.852Z,16.00
2023-09-05T01:56:53.710Z,15.90
2023-09-05T01:59:23.125Z,15.60
2023-09-05T02:01:51.291Z,15.40
2023-09-05T02:04:19.227Z,15.10
2023-09-05T02:06:47.127Z,15.00
2023-09-05T02:09:15.036Z,14.70
2023-09-05T02:11:42.927Z,14.60
2023-09-05T02:14:10.798Z,14.60
2023-09-05T02:16:40.074Z,14.90
2023-09-05T02:19:08.011Z,15.00
2023-09-05T02:21:35.872Z,14.90
2023-09-05T02:24:03.737Z,14.80
2023-09-05T02:26:31.579Z,15.00
2023-09-05T02:29:00.044Z,15.10
2023-09-05T02:31:27.925Z,15.40
2023-09-05T02:33:57.215Z,15.20
2023-09-05T02:36:25.125Z,15.10
2023-09-05T02:38:53.050Z,14.80
2023-09-05T02:41:21.001Z,14.90
2023-09-05T02:43:48.949Z,14.90
2023-09-05T02:46:16.934Z,15.10
2023-09-05T02:48:45.393Z,15.20
2023-09-05T02:51:15.310Z,15.30
2023-09-05T02:53:43.235Z,15.20
2023-09-05T02:56:11.125Z,15.00
2023-09-05T02:58:38.980Z,14.80
2023-09-05T03:01:11.632Z,14.70
2023-09-05T03:03:39.737Z,15.00
2023-09-05T03:06:11.716Z,14.90
2023-09-05T03:08:43.459Z,14.70
2023-09-05T03:11:11.404Z,14.30
2023-09-05T03:13:39.282Z,14.20
2023-09-05T03:16:07.237Z,13.90
2023-09-05T03:18:35.174Z,13.80
2023-09-05T03:21:03.142Z,14.00
2023-09-05T03:23:31.052Z,13.90
2023-09-05T03:26:00.239Z,13.50
2023-09-05T03:28:40.754Z,13.30
2023-09-05T03:31:08.690Z,13.10
2023-09-05T03:33:36.802Z,13.00
2023-09-05T03:36:06.266Z,12.80
2023-09-05T03:38:34.328Z,13.10
2023-09-05T03:41:03.618Z,12.90
2023-09-05T03:43:31.512Z,13.20
2023-09-05T03:45:59.476Z,13.10
2023-09-05T03:48:27.613Z,12.80
2023-09-05T03:50:55.575Z,12.60
2023-09-05T03:53:23.653Z,12.40
2023-09-05T03:55:52.432Z,12.20
2023-09-05T03:58:21.631Z,12.10
2023-09-05T04:00:49.514Z,12.00
2023-09-05T04:03:17.623Z,12.40
2023-09-05T04:05:45.584Z,12.40
2023-09-05T04:08:13.441Z,12.30
2023-09-05T04:10:41.912Z,12.40
2023-09-05T04:13:09.780Z,12.20
2023-09-05T04:15:39.497Z,12.20
2023-09-05T04:18:07.590Z,12.00
2023-09-05T04:20:35.546Z,11.90
2023-09-05T04:23:03.446Z,11.80
2023-09-05T04:25:33.751Z,12.00
2023-09-05T04:28:01.627Z,12.00
2023-09-05T04:30:29.685Z,12.00
2023-09-05T04:32:59.671Z,11.90
2023-09-05T04:35:27.636Z,11.90
2023-09-05T04:37:55.520Z,11.90
2023-09-05T04:40:23.823Z,11.70
2023-09-05T04:42:51.670Z,11.60
2023-09-05T04:45:19.536Z,11.60
2023-09-05T04:47:47.463Z,11.50
2023-09-05T04:50:16.713Z,11.40
2023-09-05T04:52:44.544Z,11.40
2023-09-05T04:55:12.415Z,11.50
2023-09-05T04:57:43.404Z,11.70
2023-09-05T05:00:14.730Z,12.00
2023-09-05T05:02:42.860Z,12.00
2023-09-05T05:05:11.266Z,11.90
2023-09-05T05:07:40.501Z,11.80
2023-09-05T05:10:09.467Z,11.70
2023-09-05T05:12:37.350Z,11.70
2023-09-05T05:15:05.669Z,11.50
2023-09-05T05:17:33.576Z,11.90
2023-09-05T05:20:01.760Z,12.10
2023-09-05T05:22:29.617Z,12.50
2023-09-05T05:24:58.928Z,13.10
2023-09-05T05:27:27.151Z,13.50
2023-09-05T05:29:55.458Z,13.90
2023-09-05T05:32:23.307Z,13.90
2023-09-05T05:34:51.167Z,13.80
2023-09-05T05:37:19.214Z,13.90
2023-09-05T05:39:47.090Z,13.80
2023-09-05T05:42:16.316Z,13.80
2023-09-05T05:44:44.212Z,13.80
2023-09-05T05:47:12.050Z,14.00
2023-09-05T05:49:39.928Z,14.00
2023-09-05T05:52:09.979Z,14.00
2023-09-05T05:54:37.874Z,14.20
2023-09-05T05:57:06.281Z,14.30
2023-09-05T05:59:35.482Z,14.70
2023-09-05T06:02:04.660Z,15.00
2023-09-05T06:04:32.642Z,15.30
2023-09-05T06:07:00.555Z,15.60
2023-09-05T06:09:29.036Z,15.90
2023-09-05T06:11:56.925Z,16.20
2023-09-05T06:14:24.779Z,16.10
2023-09-05T06:16:54.045Z,15.90
2023-09-05T06:19:22.040Z,16.00
2023-09-05T06:21:49.885Z,16.20
2023-09-05T06:24:19.720Z,16.20
2023-09-05T06:26:47.570Z,16.90
2023-09-05T06:29:15.433Z,16.90
2023-09-05T06:31:43.410Z,17.30
2023-09-05T06:34:12.708Z,17.30
2023-09-05T06:36:41.531Z,17.00
2023-09-05T06:39:09.626Z,16.90
2023-09-05T06:41:38.241Z,16.90
2023-09-05T06:44:06.482Z,17.00
2023-09-05T06:46:36.586Z,17.30
2023-09-05T06:49:05.194Z,17.30
2023-09-05T06:51:34.468Z,17.30
2023-09-05T06:54:02.634Z,17.40
2023-09-05T06:56:30.486Z,17.80
2023-09-05T06:59:00.786Z,17.50
2023-09-05T07:01:30.477Z,18.00
2023-09-05T07:03:58.665Z,18.30
2023-09-05T07:06:26.542Z,18.40
2023-09-05T07:08:55.893Z,19.00
2023-09-05T07:11:24.064Z,19.60
2023-09-05T07:13:52.068Z,19.10
2023-09-05T07:16:20.024Z,19.00
2023-09-05T07:18:47.971Z,19.30
2023-09-05T07:21:16.298Z,19.50
2023-09-05T07:23:44.284Z,19.50
2023-09-05T07:26:13.596Z,19.70
2023-09-05T07:28:41.495Z,20.30
2023-09-05T07:31:09.730Z,20.50
2023-09-05T07:33:38.744Z,20.60
2023-09-05T07:36:06.844Z,20.70
2023-09-05T07:38:34.750Z,20.60
2023-09-05T07:41:03.505Z,20.80
2023-09-05T07:43:33.743Z,21.30
2023-09-05T07:46:01.708Z,21.90
2023-09-05T07:48:29.678Z,22.40
2023-09-05T07:51:03.088Z,22.80
2023-09-05T07:53:31.213Z,22.60
2023-09-05T07:55:59.402Z,22.50
2023-09-05T07:58:28.162Z,22.70
2023-09-05T08:00:58.296Z,22.70
2023-09-05T08:03:27.726Z,22.60
2023-09-05T08:05:56.232Z,23.10
2023-09-05T08:08:24.857Z,23.10
2023-09-05T08:10:53.055Z,23.00
2023-09-05T08:13:20.996Z,23.50
2023-09-05T08:15:49.013Z,23.40
2023-09-05T08:18:18.901Z,23.50
2023-09-05T08:20:47.687Z,23.40
2023-09-05T08:23:15.664Z,23.80
2023-09-05T08:25:43.575Z,23.90
2023-09-05T08:28:11.449Z,24.00
2023-09-05T08:30:39.368Z,23.80
2023-09-05T08:33:07.494Z,24.30
2023-09-05T08:35:38.830Z,24.70
2023-09-05T08:38:07.346Z,24.60
2023-09-05T08:40:35.443Z,24.80
2023-09-05T08:43:03.971Z,25.20
2023-09-05T08:45:33.271Z,25.30
2023-09-05T08:48:01.736Z,25.10
2023-09-05T08:50:30.909Z,25.10
2023-09-05T08:53:04.073Z,25.00
2023-09-05T08:55:32.186Z,25.10
2023-09-05T08:58:01.307Z,25.50
2023-09-05T09:00:30.151Z,25.60
2023-09-05T09:03:00.602Z,25.50
2023-09-05T09:05:29.399Z,25.80
2023-09-05T09:07:58.170Z,25.20
2023-09-05T09:10:27.477Z,25.20
2023-09-05T09:12:56.860Z,25.30
2023-09-05T09:15:27.168Z,25.50
2023-09-05T09:17:55.698Z,25.20
2023-09-05T09:20:24.873Z,25.40
2023-09-05T09:22:53.960Z,25.60
2023-09-05T09:25:22.579Z,26.00
2023-09-05T09:27:55.466Z,26.20
2023-09-05T09:30:25.221Z,26.40
2023-09-05T09:32:54.201Z,26.60
2023-09-05T09:35:22.683Z,26.50
2023-09-05T09:37:51.373Z,26.30
2023-09-05T09:40:19.479Z,26.50
2023-09-05T09:42:50.923Z,26.20
2023-09-05T09:45:21.609Z,26.10
2023-09-05T09:47:50.701Z,26.00
2023-09-05T09:50:21.563Z,26.30
2023-09-05T09:52:54.405Z,26.60
2023-09-05T09:55:26.449Z,26.70
2023-09-05T09:58:03.161Z,26.70
2023-09-05T10:00:33.775Z,27.10
2023-09-05T10:03:02.351Z,27.30
2023-09-05T10:05:33.029Z,27.20
2023-09-05T10:08:01.297Z,27.30
2023-09-05T10:10:30.951Z,27.20
2023-09-05T10:12:59.940Z,27.40
2023-09-05T10:15:30.226Z,27.60
2023-09-05T10:18:01.968Z,27.50
2023-09-05T10:20:31.302Z,27.50
2023-09-05T10:22:59.754Z,27.50
2023-09-05T10:25:29.751Z,27.70
2023-09-05T10:27:57.789Z,27.70
2023-09-05T10:30:25.866Z,27.50
2023-09-05T10:32:54.987Z,27.50
2023-09-05T10:35:25.034Z,27.30
2023-09-05T10:38:00.499Z,27.50
2023-09-05T10:40:35.835Z,27.20
2023-09-05T10:43:05.980Z,26.90
2023-09-05T10:45:35.832Z,27.20
2023-09-05T10:48:09.109Z,27.60
2023-09-05T10:51:13.108Z,27.50
2023-09-05T10:53:42.054Z,27.70
2023-09-05T10:56:41.375Z,27.70
2023-09-05T10:59:13.160Z,27.40
2023-09-05T11:01:49.682Z,27.70
2023-09-05T11:04:27.487Z,27.60
2023-09-05T11:07:02.615Z,27.60
2023-09-05T11:09:31.113Z,27.60
2023-09-05T11:11:59.056Z,27.50
2023-09-05T11:14:34.482Z,27.40
2023-09-05T11:17:02.842Z,27.50
2023-09-05T11:19:39.199Z,27.50
2023-09-05T11:22:11.474Z,27.10
2023-09-05T11:24:47.363Z,26.80
2023-09-05T11:27:21.475Z,26.90
2023-09-05T11:29:51.050Z,27.30
2023-09-05T11:32:19.021Z,27.60
2023-09-05T11:34:48.900Z,27.50
2023-09-05T11:37:21.146Z,27.40
2023-09-05T11:39:50.563Z,27.80
2023-09-05T11:42:23.922Z,27.80
2023-09-05T11:44:54.868Z,27.40
2023-09-05T11:47:24.134Z,27.30
2023-09-05T11:49:53.048Z,27.30
2023-09-05T11:52:24.326Z,27.40
2023-09-05T11:54:53.884Z,27.50
2023-09-05T11:57:23.720Z,27.40
2023-09-05T11:59:52.170Z,27.40
2023-09-05T12:02:20.406Z,27.20
2023-09-05T12:04:49.619Z,27.30
2023-09-05T12:07:17.516Z,27.30
2023-09-05T12:09:49.000Z,27.70
2023-09-05T12:12:21.083Z,27.60
2023-09-05T12:14:50.501Z,27.70
2023-09-05T12:17:19.699Z,28.00
2023-09-05T12:19:48.964Z,28.00
2023-09-05T12:22:28.457Z,28.10
2023-09-05T12:25:15.880Z,28.00
2023-09-05T12:27:47.170Z,28.00
2023-09-05T12:30:38.765Z,28.00
2023-09-05T12:33:06.740Z,27.90
2023-09-05T12:35:36.041Z,28.10
2023-09-05T12:38:06.163Z,28.30
2023-09-05T12:40:35.636Z,28.50
2023-09-05T12:43:03.777Z,28.50
2023-09-05T12:45:32.323Z,28.80
2023-09-05T12:48:00.455Z,28.80
2023-09-05T12:50:31.595Z,28.80
2023-09-05T12:53:02.116Z,28.30
2023-09-05T12:55:33.354Z,28.10
2023-09-05T12:58:04.807Z,27.90
2023-09-05T13:00:34.021Z,27.80
2023-09-05T13:03:02.242Z,27.70
2023-09-05T13:05:31.452Z,27.60
2023-09-05T13:07:59.817Z,27.60
2023-09-05T13:10:28.969Z,27.60
2023-09-05T13:13:00.199Z,27.70
2023-09-05T13:15:30.563Z,27.70
2023-09-05T13:17:58.839Z,27.80
2023-09-05T13:20:28.750Z,27.60
2023-09-05T13:22:58.205Z,27.40
2023-09-05T13:25:29.818Z,27.60
2023-09-05T13:27:57.943Z,27.70
2023-09-05T13:30:25.987Z,27.60
2023-09-05T13:32:56.580Z,27.50
2023-09-05T13:35:24.638Z,27.60
2023-09-05T13:37:52.571Z,27.30
2023-09-05T13:40:20.546Z,27.20
2023-09-05T13:42:48.440Z,27.30
2023-09-05T13:45:16.577Z,27.50
2023-09-05T13:47:44.487Z,27.50
2023-09-05T13:52:44.885Z,27.40
2023-09-05T13:55:12.757Z,27.60
2023-09-05T13:57:40.730Z,27.70
2023-09-05T14:00:09.846Z,27.60
2023-09-05T14:02:37.823Z,27.50
2023-09-05T14:05:06.601Z,27.40
2023-09-05T14:07:37.365Z,27.40
2023-09-05T14:10:05.543Z,27.40
2023-09-05T14:12:33.426Z,27.20
2023-09-05T14:15:01.837Z,27.50
2023-09-05T14:17:29.722Z,27.60
2023-09-05T14:19:57.794Z,27.30
2023-09-05T14:22:25.685Z,27.40
2023-09-05T14:24:55.239Z,27.40
2023-09-05T14:27:23.175Z,27.50
2023-09-05T14:29:52.591Z,27.40
2023-09-05T14:32:20.892Z,27.40
2023-09-05T14:34:55.389Z,27.50
2023-09-05T14:37:25.567Z,27.60
2023-09-05T14:39:54.845Z,27.60
2023-09-05T14:42:22.909Z,27.40
2023-09-05T14:44:50.859Z,27.40
2023-09-05T14:47:18.947Z,27.40
2023-09-05T14:49:47.424Z,27.40
2023-09-05T14:52:15.353Z,27.50
2023-09-05T14:54:43.788Z,27.30
2023-09-05T14:57:13.099Z,27.40
2023-09-05T14:59:40.977Z,27.50
2023-09-05T15:02:10.589Z,27.50
2023-09-05T15:04:40.077Z,27.30
2023-09-05T15:07:09.298Z,27.30
2023-09-05T15:09:37.700Z,27.30
2023-09-05T15:12:07.466Z,27.40
2023-09-05T15:14:38.655Z,27.20
2023-09-05T15:17:07.520Z,27.30
2023-09-05T15:19:35.522Z,27.40
2023-09-05T15:22:04.876Z,27.30
2023-09-05T15:24:33.299Z,27.30
2023-09-05T15:27:02.706Z,27.30
2023-09-05T15:29:30.627Z,27.20
2023-09-05T15:31:59.887Z,27.30
2023-09-05T15:34:30.749Z,27.20
2023-09-05T15:36:58.950Z,27.00
2023-09-05T15:39:26.936Z,26.70
2023-09-05T15:41:54.851Z,26.50
2023-09-05T15:44:22.762Z,26.30
2023-09-05T15:46:50.660Z,26.20
2023-09-05T15:49:19.938Z,26.10
2023-09-05T15:51:48.639Z,26.10
2023-09-05T15:54:18.013Z,26.20
2023-09-05T15:56:45.948Z,26.10
2023-09-05T15:59:14.038Z,25.90
2023-09-05T16:01:41.985Z,25.90
2023-09-05T16:04:09.983Z,25.90
2023-09-05T16:06:39.286Z,25.70
2023-09-05T16:09:07.170Z,25.70
2023-09-05T16:11:37.006Z,25.70
2023-09-05T16:14:06.168Z,25.50
2023-09-05T16:16:34.779Z,25.50
2023-09-05T16:19:03.039Z,25.40
2023-09-05T16:21:31.043Z,25.30
2023-09-05T16:24:00.310Z,25.20
2023-09-05T16:26:30.877Z,25.20
2023-09-05T16:28:59.040Z,25.20
2023-09-05T16:31:26.958Z,25.00
2023-09-05T16:33:54.953Z,25.00
2023-09-05T16:36:23.469Z,24.90
2023-09-05T16:38:52.491Z,24.80
2023-09-05T16:41:21.734Z,24.80
2023-09-05T16:43:49.562Z,24.70
2023-09-05T16:46:18.141Z,24.60
2023-09-05T16:48:46.447Z,24.60
2023-09-05T16:51:15.091Z,24.60
2023-09-05T16:53:43.499Z,24.50
2023-09-05T16:56:13.564Z,24.40
2023-09-05T16:58:43.549Z,24.40
2023-09-05T17:01:11.556Z,24.30
2023-09-05T17:03:39.625Z,24.30
2023-09-05T17:06:07.617Z,24.20
2023-09-05T17:08:35.492Z,24.10
2023-09-05T17:11:04.052Z,24.10
2023-09-05T17:13:32.104Z,24.00
2023-09-05T17:16:00.434Z,23.80
2023-09-05T17:18:28.792Z,23.70
2023-09-05T17:20:58.234Z,23.60
2023-09-05T17:23:26.214Z,23.60
2023-09-05T17:25:54.101Z,23.60
2023-09-05T17:28:23.117Z,23.60
2023-09-05T17:30:51.223Z,23.50
2023-09-05T17:33:20.669Z,23.40
2023-09-05T17:35:53.647Z,23.40
2023-09-05T17:38:22.175Z,23.30
2023-09-05T17:40:50.268Z,23.30
2023-09-05T17:43:18.932Z,23.20
2023-09-05T17:45:47.495Z,23.20
2023-09-05T17:48:23.331Z,23.10
2023-09-05T17:50:57.763Z,23.10
2023-09-05T17:53:27.037Z,23.00
2023-09-05T17:55:54.988Z,23.00
2023-09-05T17:58:22.915Z,22.80
2023-09-05T18:00:52.571Z,22.70
2023-09-05T18:03:20.916Z,22.50
2023-09-05T18:05:50.066Z,22.50
2023-09-05T18:08:19.743Z,22.30
2023-09-05T18:10:48.325Z,22.20
2023-09-05T18:13:16.249Z,22.10
2023-09-05T18:15:45.749Z,22.00
2023-09-05T18:18:15.207Z,21.90
2023-09-05T18:20:43.594Z,21.80
2023-09-05T18:23:11.544Z,21.70
2023-09-05T18:25:40.897Z,21.60
2023-09-05T18:28:08.842Z,21.40
2023-09-05T18:30:36.750Z,21.40
2023-09-05T18:33:04.984Z,21.30
2023-09-05T18:35:32.844Z,21.20
2023-09-05T18:38:01.082Z,21.10
2023-09-05T18:40:29.036Z,21.00
2023-09-05T18:42:58.325Z,21.00
2023-09-05T18:45:26.352Z,21.00
2023-09-05T18:47:54.277Z,21.00
2023-09-05T18:50:22.148Z,21.00
2023-09-05T18:52:51.896Z,21.00
2023-09-05T18:55:19.836Z,20.90
2023-09-05T18:57:47.690Z,20.90
2023-09-05T19:00:17.646Z,20.90
2023-09-05T19:02:46.082Z,20.80
2023-09-05T19:05:16.306Z,20.80
2023-09-05T19:07:43.238Z,20.70
2023-09-05T19:10:11.467Z,20.70
2023-09-05T19:12:39.328Z,20.60
2023-09-05T19:15:08.779Z,20.50
2023-09-05T19:17:38.115Z,20.40
2023-09-05T19:20:07.710Z,20.30
2023-09-05T19:22:36.305Z,20.20
2023-09-05T19:25:04.445Z,20.10
2023-09-05T19:27:32.335Z,20.00
2023-09-05T19:30:00.259Z,20.10
2023-09-05T19:32:28.371Z,20.20
2023-09-05T19:34:57.577Z,20.10
2023-09-05T19:37:25.416Z,20.10
2023-09-05T19:39:53.373Z,20.10
2023-09-05T19:42:21.559Z,20.10
2023-09-05T19:44:49.656Z,20.00
2023-09-05T19:47:17.683Z,19.80
2023-09-05T19:49:45.669Z,19.80
2023-09-05T19:52:15.385Z,19.60
2023-09-05T19:54:43.225Z,19.70
2023-09-05T19:57:11.175Z,19.70
2023-09-05T19:59:39.150Z,19.60
2023-09-05T20:02:07.662Z,19.50
2023-09-05T20:04:35.590Z,19.40
2023-09-05T20:07:03.789Z,19.50
2023-09-05T20:09:35.241Z,19.40
2023-09-05T20:12:04.820Z,19.40
2023-09-05T20:14:33.249Z,19.30
2023-09-05T20:17:01.160Z,19.30
2023-09-05T20:19:29.899Z,19.50
2023-09-05T20:21:59.798Z,19.60
2023-09-05T20:24:27.768Z,19.40
2023-09-05T20:26:56.999Z,19.30
2023-09-05T20:29:25.311Z,19.40
2023-09-05T20:31:53.225Z,19.50
2023-09-05T20:34:21.396Z,19.40
2023-09-05T20:36:53.223Z,19.50
2023-09-05T20:39:23.217Z,19.40
2023-09-05T20:41:51.233Z,19.20
2023-09-05T20:44:20.435Z,19.00
2023-09-05T20:46:48.563Z,18.70
2023-09-05T20:49:16.561Z,18.80
2023-09-05T20:51:44.954Z,18.90
2023-09-05T20:54:13.146Z,19.10
2023-09-05T20:56:41.058Z,19.10
2023-09-05T20:59:09.498Z,19.30
2023-09-05T21:01:39.537Z,19.60
2023-09-05T21:04:09.253Z,19.60
2023-09-05T21:06:37.337Z,19.40
2023-09-05T21:09:05.580Z,19.40
2023-09-05T21:11:33.455Z,19.60
2023-09-05T21:14:01.687Z,19.60
2023-09-05T21:16:29.560Z,19.40
2023-09-05T21:19:01.473Z,19.10
2023-09-05T21:21:30.754Z,18.80
2023-09-05T21:23:58.670Z,18.60
2023-09-05T21:26:26.523Z,18.40
2023-09-05T21:28:54.345Z,18.10
2023-09-05T21:31:22.299Z,17.90
2023-09-05T21:33:50.246Z,17.70
2023-09-05T21:36:19.555Z,17.40
2023-09-05T21:38:47.432Z,17.40
2023-09-05T21:41:15.286Z,17.50
2023-09-05T21:43:43.202Z,17.20
2023-09-05T21:46:13.476Z,17.00
2023-09-05T21:48:41.718Z,17.00
2023-09-05T21:51:09.625Z,16.80
2023-09-05T21:53:39.533Z,16.70
2023-09-05T21:56:07.398Z,16.50
2023-09-05T21:58:35.275Z,16.60
2023-09-05T22:01:03.214Z,16.70
2023-09-05T22:03:31.481Z,16.60
2023-09-05T22:05:59.498Z,16.50
2023-09-05T22:08:27.614Z,16.50
2023-09-05T22:10:58.324Z,16.60
2023-09-05T22:13:26.161Z,16.40
2023-09-05T22:15:55.604Z,16.30
2023-09-05T22:18:23.892Z,16.20
2023-09-05T22:20:58.487Z,15.90
2023-09-05T22:23:27.342Z,15.90
2023-09-05T22:25:56.716Z,15.70
2023-09-05T22:28:27.516Z,15.60
2023-09-05T22:30:56.018Z,15.60
2023-09-05T22:33:24.373Z,16.30
2023-09-05T22:35:52.659Z,16.00
2023-09-05T22:38:21.426Z,15.80
2023-09-05T22:40:49.368Z,15.60
2023-09-05T22:43:18.945Z,15.50
2023-09-05T22:45:47.219Z,15.20
2023-09-05T22:48:15.247Z,15.10
2023-09-05T22:50:44.182Z,14.90
2023-09-05T22:53:12.033Z,14.90
2023-09-05T22:55:40.736Z,14.80
2023-09-05T22:58:08.939Z,14.70
2023-09-05T23:00:39.483Z,14.80
2023-09-05T23:03:08.159Z,15.20
2023-09-05T23:05:36.318Z,15.00
2023-09-05T23:08:05.214Z,14.70
2023-09-05T23:10:33.087Z,14.90
2023-09-05T23:13:00.983Z,14.70
2023-09-05T23:15:28.890Z,14.40
2023-09-05T23:17:58.298Z,14.30
2023-09-05T23:20:26.553Z,14.20
2023-09-05T23:22:54.422Z,14.20
2023-09-05T23:25:23.321Z,14.00
2023-09-05T23:27:52.178Z,14.00
2023-09-05T23:30:20.230Z,14.00
2023-09-05T23:32:48.281Z,13.90
2023-09-05T23:35:19.469Z,13.80
2023-09-05T23:37:47.378Z,13.60
2023-09-05T23:40:17.986Z,13.50
2023-09-05T23:42:46.975Z,13.40
2023-09-05T23:45:16.411Z,13.30
2023-09-05T23:47:48.248Z,13.30
2023-09-05T23:50:19.997Z,13.20
2023-09-05T23:52:50.093Z,13.10
2023-09-05T23:55:19.323Z,13.00
2023-09-05T23:57:47.422Z,13.10
